sensor_id;sensor_type;location;lat;lon;timestamp;temperature;humidity
5382;DHT22;2714;49.852;6.564;2023-02-11T00:05:25;2.30;99.90
5382;DHT22;2714;49.852;6.564;2023-02-11T00:09:26;2.30;99.90
5382;DHT22;2714;49.852;6.564;2023-02-11T00:13:26;2.30;99.90
5382;DHT22;2714;49.852;6.564;2023-02-11T00:17:27;2.40;99.90
5382;DHT22;2714;49.852;6.564;2023-02-11T00:21:28;2.40;99.90
5382;DHT22;2714;49.852;6.564;2023-02-11T00:25:29;2.40;99.90
5382;DHT22;2714;49.852;6.564;2023-02-11T00:29:29;2.30;99.90
5382;DHT22;2714;49.852;6.564;2023-02-11T00:33:30;2.40;99.90
5382;DHT22;2714;49.852;6.564;2023-02-11T00:37:30;2.70;99.90
5382;DHT22;2714;49.852;6.564;2023-02-11T00:41:31;3.00;99.90
5382;DHT22;2714;49.852;6.564;2023-02-11T00:45:31;3.20;99.90
5382;DHT22;2714;49.852;6.564;2023-02-11T00:49:32;3.30;99.90
5382;DHT22;2714;49.852;6.564;2023-02-11T00:53:33;3.40;99.90
5382;DHT22;2714;49.852;6.564;2023-02-11T00:57:34;3.40;99.90
5382;DHT22;2714;49.852;6.564;2023-02-11T01:01:35;3.30;99.90
5382;DHT22;2714;49.852;6.564;2023-02-11T01:05:35;3.20;99.90
5382;DHT22;2714;49.852;6.564;2023-02-11T01:09:39;2.90;99.90
5382;DHT22;2714;49.852;6.564;2023-02-11T01:13:39;2.80;99.90
5382;DHT22;2714;49.852;6.564;2023-02-11T01:17:40;2.60;99.90
5382;DHT22;2714;49.852;6.564;2023-02-11T01:21:41;2.60;99.90
5382;DHT22;2714;49.852;6.564;2023-02-11T01:25:41;2.70;99.90
5382;DHT22;2714;49.852;6.564;2023-02-11T01:29:42;2.80;99.90
5382;DHT22;2714;49.852;6.564;2023-02-11T01:33:42;3.00;99.90
5382;DHT22;2714;49.852;6.564;2023-02-11T01:37:43;3.00;99.90
5382;DHT22;2714;49.852;6.564;2023-02-11T01:41:43;2.80;99.90
5382;DHT22;2714;49.852;6.564;2023-02-11T01:49:58;2.60;99.90
5382;DHT22;2714;49.852;6.564;2023-02-11T01:54:01;2.50;99.90
5382;DHT22;2714;49.852;6.564;2023-02-11T01:58:21;2.40;99.90
5382;DHT22;2714;49.852;6.564;2023-02-11T02:02:33;2.40;99.90
5382;DHT22;2714;49.852;6.564;2023-02-11T02:06:53;2.30;99.90
5382;DHT22;2714;49.852;6.564;2023-02-11T02:10:55;2.30;99.90
5382;DHT22;2714;49.852;6.564;2023-02-11T02:15:23;2.40;99.90
5382;DHT22;2714;49.852;6.564;2023-02-11T02:24:53;2.30;99.90
5382;DHT22;2714;49.852;6.564;2023-02-11T02:33:54;2.10;99.90
5382;DHT22;2714;49.852;6.564;2023-02-11T02:42:35;2.20;99.90
5382;DHT22;2714;49.852;6.564;2023-02-11T02:46:38;2.40;99.90
5382;DHT22;2714;49.852;6.564;2023-02-11T02:50:39;2.40;99.90
5382;DHT22;2714;49.852;6.564;2023-02-11T02:55:17;2.40;99.90
5382;DHT22;2714;49.852;6.564;2023-02-11T03:04:11;2.60;99.90
5382;DHT22;2714;49.852;6.564;2023-02-11T03:12:30;2.90;99.90
5382;DHT22;2714;49.852;6.564;2023-02-11T03:16:32;2.90;99.90
5382;DHT22;2714;49.852;6.564;2023-02-11T03:20:41;2.90;99.90
5382;DHT22;2714;49.852;6.564;2023-02-11T03:24:43;2.80;99.90
5382;DHT22;2714;49.852;6.564;2023-02-11T03:33:30;2.40;99.90
5382;DHT22;2714;49.852;6.564;2023-02-11T03:37:44;2.50;99.90
5382;DHT22;2714;49.852;6.564;2023-02-11T03:41:47;2.50;99.90
5382;DHT22;2714;49.852;6.564;2023-02-11T03:45:50;2.60;99.90
5382;DHT22;2714;49.852;6.564;2023-02-11T03:49:54;2.60;99.90
5382;DHT22;2714;49.852;6.564;2023-02-11T03:53:57;2.60;99.90
5382;DHT22;2714;49.852;6.564;2023-02-11T03:57:59;2.70;99.90
5382;DHT22;2714;49.852;6.564;2023-02-11T04:02:00;2.80;99.90
5382;DHT22;2714;49.852;6.564;2023-02-11T04:06:00;2.90;99.90
5382;DHT22;2714;49.852;6.564;2023-02-11T04:10:01;2.90;99.90
5382;DHT22;2714;49.852;6.564;2023-02-11T04:14:02;2.70;99.90
5382;DHT22;2714;49.852;6.564;2023-02-11T04:18:03;2.40;99.90
5382;DHT22;2714;49.852;6.564;2023-02-11T04:22:04;2.50;99.90
5382;DHT22;2714;49.852;6.564;2023-02-11T04:26:05;2.60;99.90
5382;DHT22;2714;49.852;6.564;2023-02-11T04:30:07;2.60;99.90
5382;DHT22;2714;49.852;6.564;2023-02-11T04:34:08;2.40;99.90
5382;DHT22;2714;49.852;6.564;2023-02-11T04:38:08;2.20;99.90
5382;DHT22;2714;49.852;6.564;2023-02-11T04:42:09;2.00;99.90
5382;DHT22;2714;49.852;6.564;2023-02-11T04:46:09;1.90;99.90
5382;DHT22;2714;49.852;6.564;2023-02-11T04:50:10;1.70;99.90
5382;DHT22;2714;49.852;6.564;2023-02-11T04:54:11;1.70;99.90
5382;DHT22;2714;49.852;6.564;2023-02-11T04:58:11;1.60;99.90
5382;DHT22;2714;49.852;6.564;2023-02-11T05:02:12;1.50;99.90
5382;DHT22;2714;49.852;6.564;2023-02-11T05:06:12;1.40;99.90
5382;DHT22;2714;49.852;6.564;2023-02-11T05:10:13;1.60;99.90
5382;DHT22;2714;49.852;6.564;2023-02-11T05:14:14;1.90;99.90
5382;DHT22;2714;49.852;6.564;2023-02-11T05:18:14;2.20;99.90
5382;DHT22;2714;49.852;6.564;2023-02-11T05:22:15;2.50;99.90
5382;DHT22;2714;49.852;6.564;2023-02-11T05:26:16;2.60;99.90
5382;DHT22;2714;49.852;6.564;2023-02-11T05:30:16;2.50;99.90
5382;DHT22;2714;49.852;6.564;2023-02-11T05:34:17;2.30;99.90
5382;DHT22;2714;49.852;6.564;2023-02-11T05:38:17;2.30;99.90
5382;DHT22;2714;49.852;6.564;2023-02-11T05:42:18;2.30;99.90
5382;DHT22;2714;49.852;6.564;2023-02-11T05:46:18;2.30;99.90
5382;DHT22;2714;49.852;6.564;2023-02-11T05:50:19;2.40;99.90
5382;DHT22;2714;49.852;6.564;2023-02-11T05:54:20;2.30;99.90
5382;DHT22;2714;49.852;6.564;2023-02-11T05:58:21;2.30;99.90
5382;DHT22;2714;49.852;6.564;2023-02-11T06:02:21;2.30;99.90
5382;DHT22;2714;49.852;6.564;2023-02-11T06:06:23;2.30;99.90
5382;DHT22;2714;49.852;6.564;2023-02-11T06:10:25;2.30;99.90
5382;DHT22;2714;49.852;6.564;2023-02-11T06:14:25;2.30;99.90
5382;DHT22;2714;49.852;6.564;2023-02-11T06:18:26;2.20;99.90
5382;DHT22;2714;49.852;6.564;2023-02-11T06:22:27;2.10;99.90
5382;DHT22;2714;49.852;6.564;2023-02-11T06:26:28;2.20;99.90
5382;DHT22;2714;49.852;6.564;2023-02-11T06:30:28;2.30;99.90
5382;DHT22;2714;49.852;6.564;2023-02-11T06:34:29;2.20;99.90
5382;DHT22;2714;49.852;6.564;2023-02-11T06:38:30;2.30;99.90
5382;DHT22;2714;49.852;6.564;2023-02-11T06:42:30;2.30;99.90
5382;DHT22;2714;49.852;6.564;2023-02-11T06:46:31;2.30;99.90
5382;DHT22;2714;49.852;6.564;2023-02-11T06:50:31;2.30;99.90
5382;DHT22;2714;49.852;6.564;2023-02-11T06:54:32;2.30;99.90
5382;DHT22;2714;49.852;6.564;2023-02-11T06:58:36;2.30;99.90
5382;DHT22;2714;49.852;6.564;2023-02-11T07:02:37;2.40;99.90
5382;DHT22;2714;49.852;6.564;2023-02-11T07:06:37;2.30;99.90
5382;DHT22;2714;49.852;6.564;2023-02-11T07:10:38;2.40;99.90
5382;DHT22;2714;49.852;6.564;2023-02-11T07:14:39;2.40;99.90
5382;DHT22;2714;49.852;6.564;2023-02-11T07:18:39;2.30;99.90
5382;DHT22;2714;49.852;6.564;2023-02-11T07:22:40;2.30;99.90
5382;DHT22;2714;49.852;6.564;2023-02-11T07:26:41;2.40;99.90
5382;DHT22;2714;49.852;6.564;2023-02-11T07:30:41;2.50;99.90
5382;DHT22;2714;49.852;6.564;2023-02-11T07:34:42;2.60;99.90
5382;DHT22;2714;49.852;6.564;2023-02-11T07:38:43;2.60;99.90
5382;DHT22;2714;49.852;6.564;2023-02-11T07:42:43;2.70;99.90
5382;DHT22;2714;49.852;6.564;2023-02-11T07:46:44;2.80;99.90
5382;DHT22;2714;49.852;6.564;2023-02-11T07:50:44;2.90;99.90
5382;DHT22;2714;49.852;6.564;2023-02-11T07:54:47;2.90;99.90
5382;DHT22;2714;49.852;6.564;2023-02-11T07:58:48;3.00;99.90
5382;DHT22;2714;49.852;6.564;2023-02-11T08:02:49;3.00;99.90
5382;DHT22;2714;49.852;6.564;2023-02-11T08:06:50;3.10;99.90
5382;DHT22;2714;49.852;6.564;2023-02-11T08:10:52;3.10;99.90
5382;DHT22;2714;49.852;6.564;2023-02-11T08:14:52;3.10;99.90
5382;DHT22;2714;49.852;6.564;2023-02-11T08:18:56;3.10;99.90
5382;DHT22;2714;49.852;6.564;2023-02-11T08:22:57;3.20;99.90
5382;DHT22;2714;49.852;6.564;2023-02-11T08:26:57;3.30;99.90
5382;DHT22;2714;49.852;6.564;2023-02-11T08:31:06;3.40;99.90
5382;DHT22;2714;49.852;6.564;2023-02-11T08:35:07;3.40;99.90
5382;DHT22;2714;49.852;6.564;2023-02-11T08:39:13;3.50;99.90
5382;DHT22;2714;49.852;6.564;2023-02-11T08:43:14;3.70;99.90
5382;DHT22;2714;49.852;6.564;2023-02-11T08:47:14;4.00;99.90
5382;DHT22;2714;49.852;6.564;2023-02-11T08:51:27;4.20;99.90
5382;DHT22;2714;49.852;6.564;2023-02-11T08:55:29;4.40;99.90
5382;DHT22;2714;49.852;6.564;2023-02-11T08:59:30;4.40;99.90
5382;DHT22;2714;49.852;6.564;2023-02-11T09:03:31;4.60;99.90
5382;DHT22;2714;49.852;6.564;2023-02-11T09:07:31;5.00;99.90
5382;DHT22;2714;49.852;6.564;2023-02-11T09:11:34;5.40;99.90
5382;DHT22;2714;49.852;6.564;2023-02-11T09:15:35;5.40;99.90
5382;DHT22;2714;49.852;6.564;2023-02-11T09:19:36;5.20;99.90
5382;DHT22;2714;49.852;6.564;2023-02-11T09:23:36;5.00;99.90
5382;DHT22;2714;49.852;6.564;2023-02-11T09:27:37;5.20;99.90
5382;DHT22;2714;49.852;6.564;2023-02-11T09:31:37;5.20;99.90
5382;DHT22;2714;49.852;6.564;2023-02-11T09:35:38;5.00;99.90
5382;DHT22;2714;49.852;6.564;2023-02-11T09:39:38;5.10;99.90
5382;DHT22;2714;49.852;6.564;2023-02-11T09:43:47;5.40;99.90
5382;DHT22;2714;49.852;6.564;2023-02-11T09:47:54;5.70;99.90
5382;DHT22;2714;49.852;6.564;2023-02-11T09:52:01;6.10;99.90
5382;DHT22;2714;49.852;6.564;2023-02-11T09:56:10;6.50;99.90
5382;DHT22;2714;49.852;6.564;2023-02-11T10:00:56;6.60;99.90
5382;DHT22;2714;49.852;6.564;2023-02-11T10:34:04;6.80;99.90
5382;DHT22;2714;49.852;6.564;2023-02-11T10:38:07;6.90;99.90
5382;DHT22;2714;49.852;6.564;2023-02-11T10:42:10;7.00;99.90
5382;DHT22;2714;49.852;6.564;2023-02-11T10:46:17;7.10;99.90
5382;DHT22;2714;49.852;6.564;2023-02-11T10:50:26;6.60;99.90
5382;DHT22;2714;49.852;6.564;2023-02-11T10:54:27;6.30;99.90
5382;DHT22;2714;49.852;6.564;2023-02-11T10:58:30;6.30;99.90
5382;DHT22;2714;49.852;6.564;2023-02-11T11:02:35;6.30;99.90
5382;DHT22;2714;49.852;6.564;2023-02-11T11:06:38;6.10;99.90
5382;DHT22;2714;49.852;6.564;2023-02-11T11:10:41;6.40;99.90
5382;DHT22;2714;49.852;6.564;2023-02-11T11:14:57;6.40;99.90
5382;DHT22;2714;49.852;6.564;2023-02-11T11:23:15;6.20;99.90
5382;DHT22;2714;49.852;6.564;2023-02-11T11:27:20;6.30;99.90
5382;DHT22;2714;49.852;6.564;2023-02-11T11:31:55;6.50;99.90
5382;DHT22;2714;49.852;6.564;2023-02-11T11:36:09;6.80;99.90
5382;DHT22;2714;49.852;6.564;2023-02-11T11:40:23;6.90;99.90
5382;DHT22;2714;49.852;6.564;2023-02-11T11:44:27;7.00;99.90
5382;DHT22;2714;49.852;6.564;2023-02-11T11:48:40;7.10;99.90
5382;DHT22;2714;49.852;6.564;2023-02-11T11:57:03;7.30;99.90
5382;DHT22;2714;49.852;6.564;2023-02-11T12:17:51;7.20;99.90
5382;DHT22;2714;49.852;6.564;2023-02-11T12:22:44;7.20;99.90
5382;DHT22;2714;49.852;6.564;2023-02-11T12:27:06;7.10;99.90
5382;DHT22;2714;49.852;6.564;2023-02-11T12:35:54;6.60;99.90
5382;DHT22;2714;49.852;6.564;2023-02-11T12:49:23;6.80;99.90
5382;DHT22;2714;49.852;6.564;2023-02-11T12:58:03;6.80;99.90
5382;DHT22;2714;49.852;6.564;2023-02-11T13:02:18;6.70;99.90
5382;DHT22;2714;49.852;6.564;2023-02-11T13:06:29;6.80;99.90
5382;DHT22;2714;49.852;6.564;2023-02-11T13:10:36;6.80;99.90
5382;DHT22;2714;49.852;6.564;2023-02-11T13:14:38;6.90;99.90
5382;DHT22;2714;49.852;6.564;2023-02-11T13:19:01;7.00;99.90
5382;DHT22;2714;49.852;6.564;2023-02-11T13:31:18;7.20;99.90
5382;DHT22;2714;49.852;6.564;2023-02-11T13:39:31;7.10;99.90
5382;DHT22;2714;49.852;6.564;2023-02-11T13:43:33;7.10;99.90
5382;DHT22;2714;49.852;6.564;2023-02-11T13:47:42;7.30;99.90
5382;DHT22;2714;49.852;6.564;2023-02-11T13:51:43;7.20;99.90
5382;DHT22;2714;49.852;6.564;2023-02-11T13:55:45;7.10;99.90
5382;DHT22;2714;49.852;6.564;2023-02-11T13:59:52;7.20;99.90
5382;DHT22;2714;49.852;6.564;2023-02-11T14:04:19;7.10;99.90
5382;DHT22;2714;49.852;6.564;2023-02-11T14:17:35;7.10;99.90
5382;DHT22;2714;49.852;6.564;2023-02-11T14:21:37;7.20;99.90
5382;DHT22;2714;49.852;6.564;2023-02-11T14:25:41;6.90;99.90
5382;DHT22;2714;49.852;6.564;2023-02-11T14:34:40;6.60;99.90
5382;DHT22;2714;49.852;6.564;2023-02-11T14:39:15;6.80;99.90
5382;DHT22;2714;49.852;6.564;2023-02-11T14:43:47;6.90;99.90
5382;DHT22;2714;49.852;6.564;2023-02-11T14:48:19;6.80;99.90
5382;DHT22;2714;49.852;6.564;2023-02-11T14:52:29;6.80;99.90
5382;DHT22;2714;49.852;6.564;2023-02-11T14:56:31;6.70;99.90
5382;DHT22;2714;49.852;6.564;2023-02-11T15:00:33;6.70;99.90
5382;DHT22;2714;49.852;6.564;2023-02-11T15:04:34;6.90;99.90
5382;DHT22;2714;49.852;6.564;2023-02-11T15:08:37;7.00;99.90
5382;DHT22;2714;49.852;6.564;2023-02-11T15:12:44;7.10;99.90
5382;DHT22;2714;49.852;6.564;2023-02-11T15:16:49;7.10;99.90
5382;DHT22;2714;49.852;6.564;2023-02-11T15:20:52;7.20;99.90
5382;DHT22;2714;49.852;6.564;2023-02-11T15:25:08;7.20;99.90
5382;DHT22;2714;49.852;6.564;2023-02-11T15:29:16;7.10;99.90
5382;DHT22;2714;49.852;6.564;2023-02-11T15:33:21;7.20;99.90
5382;DHT22;2714;49.852;6.564;2023-02-11T15:37:25;7.00;99.90
5382;DHT22;2714;49.852;6.564;2023-02-11T15:41:36;6.90;99.90
5382;DHT22;2714;49.852;6.564;2023-02-11T15:45:42;6.80;99.90
5382;DHT22;2714;49.852;6.564;2023-02-11T15:49:44;6.70;99.90
5382;DHT22;2714;49.852;6.564;2023-02-11T15:53:48;6.50;99.90
5382;DHT22;2714;49.852;6.564;2023-02-11T15:57:58;6.40;99.90
5382;DHT22;2714;49.852;6.564;2023-02-11T16:27:32;6.10;99.90
5382;DHT22;2714;49.852;6.564;2023-02-11T16:31:36;6.00;99.90
5382;DHT22;2714;49.852;6.564;2023-02-11T16:35:37;5.90;99.90
5382;DHT22;2714;49.852;6.564;2023-02-11T16:39:38;6.00;99.90
5382;DHT22;2714;49.852;6.564;2023-02-11T16:43:39;6.00;99.90
5382;DHT22;2714;49.852;6.564;2023-02-11T16:47:40;6.00;99.90
5382;DHT22;2714;49.852;6.564;2023-02-11T16:51:48;6.10;99.90
5382;DHT22;2714;49.852;6.564;2023-02-11T16:55:50;6.10;99.90
5382;DHT22;2714;49.852;6.564;2023-02-11T16:59:51;6.00;99.90
5382;DHT22;2714;49.852;6.564;2023-02-11T17:03:52;6.10;99.90
5382;DHT22;2714;49.852;6.564;2023-02-11T17:07:53;6.00;99.90
5382;DHT22;2714;49.852;6.564;2023-02-11T17:11:53;6.00;99.90
5382;DHT22;2714;49.852;6.564;2023-02-11T17:15:54;5.90;99.90
5382;DHT22;2714;49.852;6.564;2023-02-11T17:19:55;5.90;99.90
5382;DHT22;2714;49.852;6.564;2023-02-11T17:23:58;6.00;99.90
5382;DHT22;2714;49.852;6.564;2023-02-11T17:27:59;6.00;99.90
5382;DHT22;2714;49.852;6.564;2023-02-11T17:31:59;6.00;99.90
5382;DHT22;2714;49.852;6.564;2023-02-11T17:36:06;5.90;99.90
5382;DHT22;2714;49.852;6.564;2023-02-11T17:40:07;5.70;99.90
5382;DHT22;2714;49.852;6.564;2023-02-11T17:44:09;5.90;99.90
5382;DHT22;2714;49.852;6.564;2023-02-11T17:48:11;6.00;99.90
5382;DHT22;2714;49.852;6.564;2023-02-11T17:52:12;5.90;99.90
5382;DHT22;2714;49.852;6.564;2023-02-11T17:56:12;5.90;99.90
5382;DHT22;2714;49.852;6.564;2023-02-11T18:00:13;6.00;99.90
5382;DHT22;2714;49.852;6.564;2023-02-11T18:04:17;6.00;99.90
5382;DHT22;2714;49.852;6.564;2023-02-11T18:08:18;6.00;99.90
5382;DHT22;2714;49.852;6.564;2023-02-11T18:12:18;6.00;99.90
5382;DHT22;2714;49.852;6.564;2023-02-11T18:16:25;6.00;99.90
5382;DHT22;2714;49.852;6.564;2023-02-11T18:20:28;6.10;99.90
5382;DHT22;2714;49.852;6.564;2023-02-11T18:24:29;6.10;99.90
5382;DHT22;2714;49.852;6.564;2023-02-11T18:28:30;6.20;99.90
5382;DHT22;2714;49.852;6.564;2023-02-11T18:32:30;6.20;99.90
5382;DHT22;2714;49.852;6.564;2023-02-11T18:36:31;6.10;99.90
5382;DHT22;2714;49.852;6.564;2023-02-11T18:40:32;5.90;99.90
5382;DHT22;2714;49.852;6.564;2023-02-11T18:44:32;5.90;99.90
5382;DHT22;2714;49.852;6.564;2023-02-11T18:48:33;5.70;99.90
5382;DHT22;2714;49.852;6.564;2023-02-11T18:52:34;5.80;99.90
5382;DHT22;2714;49.852;6.564;2023-02-11T18:56:38;5.80;99.90
5382;DHT22;2714;49.852;6.564;2023-02-11T19:00:41;5.70;99.90
5382;DHT22;2714;49.852;6.564;2023-02-11T19:04:42;5.50;99.90
5382;DHT22;2714;49.852;6.564;2023-02-11T19:08:43;5.60;99.90
5382;DHT22;2714;49.852;6.564;2023-02-11T19:12:44;5.80;99.90
5382;DHT22;2714;49.852;6.564;2023-02-11T19:16:45;5.90;99.90
5382;DHT22;2714;49.852;6.564;2023-02-11T19:20:45;5.90;99.90
5382;DHT22;2714;49.852;6.564;2023-02-11T19:24:46;5.80;99.90
5382;DHT22;2714;49.852;6.564;2023-02-11T19:28:46;5.80;99.90
5382;DHT22;2714;49.852;6.564;2023-02-11T19:32:47;5.90;99.90
5382;DHT22;2714;49.852;6.564;2023-02-11T19:36:51;5.90;99.90
5382;DHT22;2714;49.852;6.564;2023-02-11T19:40:57;5.90;99.90
5382;DHT22;2714;49.852;6.564;2023-02-11T19:44:57;5.90;99.90
5382;DHT22;2714;49.852;6.564;2023-02-11T19:48:59;5.80;99.90
5382;DHT22;2714;49.852;6.564;2023-02-11T19:52:59;5.90;99.90
5382;DHT22;2714;49.852;6.564;2023-02-11T19:57:01;6.00;99.90
5382;DHT22;2714;49.852;6.564;2023-02-11T20:01:06;6.00;99.90
5382;DHT22;2714;49.852;6.564;2023-02-11T20:05:06;6.00;99.90
5382;DHT22;2714;49.852;6.564;2023-02-11T20:09:11;6.00;99.90
5382;DHT22;2714;49.852;6.564;2023-02-11T20:13:12;6.10;99.90
5382;DHT22;2714;49.852;6.564;2023-02-11T20:17:13;6.10;99.90
5382;DHT22;2714;49.852;6.564;2023-02-11T20:21:22;6.20;99.90
5382;DHT22;2714;49.852;6.564;2023-02-11T20:25:23;6.30;99.90
5382;DHT22;2714;49.852;6.564;2023-02-11T20:29:24;6.30;99.90
5382;DHT22;2714;49.852;6.564;2023-02-11T20:33:26;6.20;99.90
5382;DHT22;2714;49.852;6.564;2023-02-11T20:37:27;6.10;99.90
5382;DHT22;2714;49.852;6.564;2023-02-11T20:41:30;5.90;99.90
5382;DHT22;2714;49.852;6.564;2023-02-11T20:45:34;5.90;99.90
5382;DHT22;2714;49.852;6.564;2023-02-11T20:49:34;5.90;99.90
5382;DHT22;2714;49.852;6.564;2023-02-11T20:53:36;5.90;99.90
5382;DHT22;2714;49.852;6.564;2023-02-11T20:57:37;5.90;99.90
5382;DHT22;2714;49.852;6.564;2023-02-11T21:01:41;5.90;99.90
5382;DHT22;2714;49.852;6.564;2023-02-11T21:05:42;5.90;99.90
5382;DHT22;2714;49.852;6.564;2023-02-11T21:09:43;5.90;99.90
5382;DHT22;2714;49.852;6.564;2023-02-11T21:13:43;5.90;99.90
5382;DHT22;2714;49.852;6.564;2023-02-11T21:17:44;5.90;99.90
5382;DHT22;2714;49.852;6.564;2023-02-11T21:21:45;5.70;99.90
5382;DHT22;2714;49.852;6.564;2023-02-11T21:25:46;5.70;99.90
5382;DHT22;2714;49.852;6.564;2023-02-11T21:29:47;5.80;99.90
5382;DHT22;2714;49.852;6.564;2023-02-11T21:33:49;5.90;99.90
5382;DHT22;2714;49.852;6.564;2023-02-11T21:37:53;5.90;99.90
5382;DHT22;2714;49.852;6.564;2023-02-11T21:41:53;5.80;99.90
5382;DHT22;2714;49.852;6.564;2023-02-11T21:45:56;5.70;99.90
5382;DHT22;2714;49.852;6.564;2023-02-11T21:49:56;5.80;99.90
5382;DHT22;2714;49.852;6.564;2023-02-11T21:53:59;5.80;99.90
5382;DHT22;2714;49.852;6.564;2023-02-11T21:58:03;5.80;99.90
5382;DHT22;2714;49.852;6.564;2023-02-11T22:02:04;5.90;99.90
5382;DHT22;2714;49.852;6.564;2023-02-11T22:06:11;6.00;99.90
5382;DHT22;2714;49.852;6.564;2023-02-11T22:10:12;6.00;99.90
5382;DHT22;2714;49.852;6.564;2023-02-11T22:14:13;5.90;99.90
5382;DHT22;2714;49.852;6.564;2023-02-11T22:18:13;5.80;99.90
5382;DHT22;2714;49.852;6.564;2023-02-11T22:22:14;5.90;99.90
5382;DHT22;2714;49.852;6.564;2023-02-11T22:26:19;5.90;99.90
5382;DHT22;2714;49.852;6.564;2023-02-11T22:30:20;5.90;99.90
5382;DHT22;2714;49.852;6.564;2023-02-11T22:34:21;5.80;99.90
5382;DHT22;2714;49.852;6.564;2023-02-11T22:38:22;5.90;99.90
5382;DHT22;2714;49.852;6.564;2023-02-11T22:42:22;5.80;99.90
5382;DHT22;2714;49.852;6.564;2023-02-11T22:46:26;5.70;99.90
5382;DHT22;2714;49.852;6.564;2023-02-11T22:50:26;5.80;99.90
5382;DHT22;2714;49.852;6.564;2023-02-11T22:54:27;5.60;99.90
5382;DHT22;2714;49.852;6.564;2023-02-11T22:58:28;5.70;99.90
5382;DHT22;2714;49.852;6.564;2023-02-11T23:02:30;5.70;99.90
5382;DHT22;2714;49.852;6.564;2023-02-11T23:06:31;5.70;99.90
5382;DHT22;2714;49.852;6.564;2023-02-11T23:10:34;5.60;99.90
5382;DHT22;2714;49.852;6.564;2023-02-11T23:14:39;5.70;99.90
5382;DHT22;2714;49.852;6.564;2023-02-11T23:18:41;5.70;99.90
5382;DHT22;2714;49.852;6.564;2023-02-11T23:22:42;5.80;99.90
5382;DHT22;2714;49.852;6.564;2023-02-11T23:26:43;5.80;99.90
5382;DHT22;2714;49.852;6.564;2023-02-11T23:30:51;5.90;99.90
5382;DHT22;2714;49.852;6.564;2023-02-11T23:34:52;5.80;99.90
5382;DHT22;2714;49.852;6.564;2023-02-11T23:38:53;5.60;99.90
5382;DHT22;2714;49.852;6.564;2023-02-11T23:42:53;5.60;99.90
5382;DHT22;2714;49.852;6.564;2023-02-11T23:46:54;5.60;99.90
5382;DHT22;2714;49.852;6.564;2023-02-11T23:50:55;5.50;99.90
5382;DHT22;2714;49.852;6.564;2023-02-11T23:54:56;5.50;99.90
5382;DHT22;2714;49.852;6.564;2023-02-11T23:58:58;5.50;99.90
